Time;durP1;ratioP1;P1;durP2;ratioP2;P2;SDS_P1;SDS_P2;PMS_P1;PMS_P2;Temp;Humidity;BMP_temperature;BMP_pressure;BME280_temperature;BME280_humidity;BME280_pressure;Samples;Min_cycle;Max_cycle;Signal;HPM_P1;HPM_P2
2024/01/21 00:00:08;;;;;;;21.70;3.42;;;;;;;;;;4973562;28;20121;-36
2024/01/21 00:02:35;;;;;;;19.25;2.70;;;;;;;;;;4973744;28;20461;-36
2024/01/21 00:05:02;;;;;;;21.10;3.35;;;;;;;;;;4973714;28;20054;-36
2024/01/21 00:07:28;;;;;;;26.10;3.58;;;;;;;;;;4973127;28;20023;-36
2024/01/21 00:09:55;;;;;;;20.38;3.88;;;;;;;;;;4973748;28;20066;-36
2024/01/21 00:12:22;;;;;;;22.83;3.30;;;;;;;;;;4973615;28;20125;-36
2024/01/21 00:14:49;;;;;;;22.83;3.13;;;;;;;;;;4973537;28;20038;-36
2024/01/21 00:17:17;;;;;;;32.53;3.70;;;;;;;;;;4973613;28;20110;-36
2024/01/21 00:19:44;;;;;;;22.58;3.60;;;;;;;;;;4973494;28;20118;-37
2024/01/21 00:22:11;;;;;;;21.02;3.40;;;;;;;;;;4973457;28;20031;-36
2024/01/21 00:24:38;;;;;;;19.85;3.13;;;;;;;;;;4973399;28;20081;-36
2024/01/21 00:27:05;;;;;;;15.23;2.97;;;;;;;;;;4973450;28;20056;-37
2024/01/21 00:29:32;;;;;;;13.82;2.80;;;;;;;;;;4973476;28;20114;-36
2024/01/21 00:31:59;;;;;;;17.15;3.03;;;;;;;;;;4956015;28;20062;-36
2024/01/21 00:34:26;;;;;;;18.02;2.95;;;;;;;;;;4973109;28;20393;-36
2024/01/21 00:36:53;;;;;;;16.30;2.63;;;;;;;;;;4973289;28;20035;-37
2024/01/21 00:39:20;;;;;;;17.27;2.95;;;;;;;;;;4973202;28;20085;-36
2024/01/21 00:41:47;;;;;;;18.77;2.95;;;;;;;;;;4973209;28;20027;-36
2024/01/21 00:44:14;;;;;;;18.00;3.08;;;;;;;;;;4972513;28;20935;-33
2024/01/21 00:46:41;;;;;;;27.38;4.47;;;;;;;;;;4979834;28;20035;-36
2024/01/21 00:49:08;;;;;;;28.83;4.00;;;;;;;;;;4985721;28;20026;-38
2024/01/21 00:51:35;;;;;;;28.95;4.00;;;;;;;;;;4991507;28;20058;-38
2024/01/21 00:54:02;;;;;;;36.72;3.75;;;;;;;;;;4991268;28;20752;-36
2024/01/21 00:56:29;;;;;;;29.05;3.80;;;;;;;;;;4991904;28;20400;-36
2024/01/21 00:58:56;;;;;;;21.63;3.50;;;;;;;;;;4971955;28;20041;-38
2024/01/21 01:01:23;;;;;;;25.08;3.58;;;;;;;;;;4989885;28;20069;-36
2024/01/21 01:03:50;;;;;;;25.92;3.20;;;;;;;;;;4991680;28;20026;-38
2024/01/21 01:06:17;;;;;;;20.00;3.67;;;;;;;;;;4991356;28;20762;-38
2024/01/21 01:08:44;;;;;;;18.70;2.90;;;;;;;;;;4990640;28;20042;-38
2024/01/21 01:11:11;;;;;;;26.92;3.10;;;;;;;;;;4991723;28;20107;-37
2024/01/21 01:13:38;;;;;;;34.33;4.55;;;;;;;;;;4973443;28;20085;-38
2024/01/21 01:16:06;;;;;;;27.85;3.83;;;;;;;;;;4991180;28;20050;-38
2024/01/21 01:18:33;;;;;;;32.08;3.60;;;;;;;;;;4993448;28;20030;-36
2024/01/21 01:21:00;;;;;;;13.30;3.47;;;;;;;;;;4995062;28;20057;-36
2024/01/21 01:23:27;;;;;;;38.17;4.55;;;;;;;;;;4993959;28;20031;-36
2024/01/21 01:25:54;;;;;;;34.22;4.07;;;;;;;;;;4993984;28;20030;-37
2024/01/21 01:28:21;;;;;;;34.67;4.65;;;;;;;;;;4994077;28;20030;-37
2024/01/21 01:30:48;;;;;;;24.48;4.35;;;;;;;;;;4995342;28;20496;-37
2024/01/21 01:33:15;;;;;;;27.65;4.32;;;;;;;;;;4994232;28;20054;-35
2024/01/21 01:35:42;;;;;;;23.90;3.80;;;;;;;;;;4995090;28;20031;-35
2024/01/21 01:38:12;;;;;;;12.52;4.00;;;;;;;;;;4978602;28;20833;-35
2024/01/21 01:40:39;;;;;;;17.85;3.63;;;;;;;;;;4995160;28;20042;-38
2024/01/21 01:43:06;;;;;;;17.38;4.15;;;;;;;;;;4993656;28;20779;-38
2024/01/21 01:45:33;;;;;;;14.95;3.45;;;;;;;;;;4994054;28;20652;-37
2024/01/21 01:48:00;;;;;;;21.30;3.50;;;;;;;;;;4993666;28;20048;-35
2024/01/21 01:50:27;;;;;;;16.67;3.85;;;;;;;;;;4988851;28;20389;-36
2024/01/21 01:52:55;;;;;;;20.17;4.05;;;;;;;;;;4994814;28;20038;-38
2024/01/21 01:55:22;;;;;;;23.38;3.55;;;;;;;;;;4995160;28;20044;-35
2024/01/21 01:57:49;;;;;;;26.48;5.00;;;;;;;;;;4994798;28;20034;-36
2024/01/21 02:00:17;;;;;;;15.32;4.03;;;;;;;;;;4994461;28;20057;-38
2024/01/21 02:02:46;;;;;;;15.32;3.25;;;;;;;;;;4994245;28;20046;-36
2024/01/21 02:05:13;;;;;;;24.45;3.88;;;;;;;;;;4994969;28;20026;-36
2024/01/21 02:07:40;;;;;;;22.33;3.45;;;;;;;;;;4993770;28;20113;-38
2024/01/21 02:10:07;;;;;;;15.23;3.10;;;;;;;;;;4994654;28;20077;-37
2024/01/21 02:12:34;;;;;;;14.82;3.22;;;;;;;;;;4979256;28;20378;-35
2024/01/21 02:15:02;;;;;;;13.82;3.03;;;;;;;;;;4993260;28;20030;-36
2024/01/21 02:17:29;;;;;;;13.52;2.90;;;;;;;;;;4994229;28;20146;-35
2024/01/21 02:19:56;;;;;;;13.45;3.30;;;;;;;;;;4994008;28;20076;-36
2024/01/21 02:22:25;;;;;;;14.68;3.10;;;;;;;;;;4993993;28;20023;-37
2024/01/21 02:24:51;;;;;;;18.10;3.67;;;;;;;;;;4992042;28;20038;-38
2024/01/21 02:27:18;;;;;;;25.40;5.20;;;;;;;;;;4993575;28;20061;-37
2024/01/21 02:29:45;;;;;;;27.15;4.78;;;;;;;;;;4993379;28;20030;-38
2024/01/21 02:32:13;;;;;;;22.55;4.72;;;;;;;;;;4992535;28;20476;-36
2024/01/21 02:34:40;;;;;;;17.33;4.18;;;;;;;;;;4987532;28;20160;-38
2024/01/21 02:37:07;;;;;;;13.70;3.50;;;;;;;;;;4994349;28;20030;-35
2024/01/21 02:39:34;;;;;;;28.70;5.03;;;;;;;;;;4994019;28;20061;-38
2024/01/21 02:42:01;;;;;;;19.40;4.50;;;;;;;;;;4994381;28;20085;-35
2024/01/21 02:44:28;;;;;;;21.13;3.50;;;;;;;;;;4993771;28;20500;-35
2024/01/21 02:46:55;;;;;;;19.20;4.18;;;;;;;;;;4992984;28;20154;-37
2024/01/21 02:49:24;;;;;;;20.02;3.60;;;;;;;;;;4975773;28;20411;-37
2024/01/21 02:51:51;;;;;;;29.23;3.63;;;;;;;;;;4989903;28;20046;-38
2024/01/21 02:54:18;;;;;;;22.88;3.78;;;;;;;;;;4976253;28;20081;-35
2024/01/21 02:56:45;;;;;;;19.40;3.53;;;;;;;;;;4993459;28;20068;-35
2024/01/21 02:59:12;;;;;;;17.27;3.75;;;;;;;;;;4993660;28;20026;-35
2024/01/21 03:01:39;;;;;;;57.25;4.40;;;;;;;;;;4992650;28;20035;-34
2024/01/21 03:04:06;;;;;;;27.33;4.15;;;;;;;;;;4992298;28;20062;-41
2024/01/21 03:06:33;;;;;;;19.20;4.25;;;;;;;;;;4993618;28;20026;-38
2024/01/21 03:09:00;;;;;;;19.10;4.28;;;;;;;;;;4993385;28;20067;-38
2024/01/21 03:11:27;;;;;;;17.98;3.60;;;;;;;;;;4993071;28;20038;-37
2024/01/21 03:13:54;;;;;;;16.50;3.28;;;;;;;;;;4993356;28;20062;-36
2024/01/21 03:16:21;;;;;;;18.30;2.97;;;;;;;;;;4975884;28;20061;-36
2024/01/21 03:18:48;;;;;;;26.65;3.63;;;;;;;;;;4975634;28;20484;-37
2024/01/21 03:21:15;;;;;;;13.68;2.20;;;;;;;;;;4993100;28;20038;-38
2024/01/21 03:23:45;;;;;;;17.40;2.70;;;;;;;;;;4993033;28;20038;-37
2024/01/21 03:26:12;;;;;;;12.38;2.28;;;;;;;;;;4993380;28;20038;-40
2024/01/21 03:28:39;;;;;;;16.80;1.95;;;;;;;;;;4993517;28;20068;-38
2024/01/21 03:31:06;;;;;;;18.13;2.35;;;;;;;;;;4992411;28;20396;-39
2024/01/21 03:33:33;;;;;;;16.85;2.58;;;;;;;;;;4993498;28;20030;-38
2024/01/21 03:36:01;;;;;;;20.50;2.60;;;;;;;;;;4982260;28;20080;-35
2024/01/21 03:38:28;;;;;;;26.77;2.90;;;;;;;;;;4982143;28;20512;-36
2024/01/21 03:40:56;;;;;;;15.80;2.42;;;;;;;;;;4981765;28;20060;-40
2024/01/21 03:43:23;;;;;;;20.20;2.50;;;;;;;;;;4973467;28;20093;-36
2024/01/21 03:45:50;;;;;;;20.40;2.40;;;;;;;;;;4980334;28;20038;-39
2024/01/21 03:48:17;;;;;;;17.92;2.45;;;;;;;;;;4982140;28;20066;-36
2024/01/21 03:50:45;;;;;;;13.93;2.22;;;;;;;;;;4977427;28;20681;-39
2024/01/21 03:53:13;;;;;;;15.68;1.70;;;;;;;;;;4975722;28;20034;-39
2024/01/21 03:55:40;;;;;;;14.30;2.13;;;;;;;;;;4983844;28;20026;-38
2024/01/21 03:58:07;;;;;;;12.98;2.03;;;;;;;;;;4981429;28;20030;-39
2024/01/21 04:00:34;;;;;;;17.90;2.30;;;;;;;;;;4967627;28;20053;-38
2024/01/21 04:03:01;;;;;;;13.57;1.65;;;;;;;;;;4960235;28;20031;-37
2024/01/21 04:05:28;;;;;;;10.80;2.45;;;;;;;;;;4954307;28;20031;-38
2024/01/21 04:07:56;;;;;;;17.70;1.67;;;;;;;;;;4953438;28;20098;-39
2024/01/21 04:10:23;;;;;;;10.02;1.80;;;;;;;;;;4953561;28;20035;-39
2024/01/21 04:12:53;;;;;;;9.50;1.65;;;;;;;;;;4953594;28;20074;-40
2024/01/21 04:15:21;;;;;;;8.15;1.65;;;;;;;;;;4956023;28;20039;-38
2024/01/21 04:17:48;;;;;;;10.68;1.65;;;;;;;;;;4953506;28;20074;-38
2024/01/21 04:20:15;;;;;;;16.05;1.80;;;;;;;;;;4953123;28;20114;-40
2024/01/21 04:22:42;;;;;;;15.82;2.10;;;;;;;;;;4962871;28;20039;-38
2024/01/21 04:25:09;;;;;;;15.15;1.90;;;;;;;;;;4955115;28;20115;-41
2024/01/21 04:27:36;;;;;;;16.70;1.98;;;;;;;;;;4953376;28;20028;-38
2024/01/21 04:30:04;;;;;;;13.93;2.10;;;;;;;;;;4951974;28;20103;-40
2024/01/21 04:32:32;;;;;;;13.57;2.08;;;;;;;;;;4953158;28;20034;-41
2024/01/21 04:34:59;;;;;;;13.00;1.88;;;;;;;;;;4953227;28;20043;-37
2024/01/21 04:37:26;;;;;;;17.98;1.75;;;;;;;;;;4958259;28;20508;-40
2024/01/21 04:39:53;;;;;;;12.15;1.67;;;;;;;;;;4967379;28;20508;-37
2024/01/21 04:42:20;;;;;;;8.90;1.50;;;;;;;;;;4969925;28;20362;-39
2024/01/21 04:44:47;;;;;;;9.35;1.77;;;;;;;;;;4961006;28;20730;-39
2024/01/21 04:47:15;;;;;;;14.20;2.40;;;;;;;;;;4963308;28;20031;-40
2024/01/21 04:49:42;;;;;;;16.35;1.98;;;;;;;;;;4963639;28;20489;-41
2024/01/21 04:52:09;;;;;;;19.45;1.88;;;;;;;;;;4962628;28;20058;-41
2024/01/21 04:54:36;;;;;;;17.67;1.60;;;;;;;;;;4957566;28;20043;-39
2024/01/21 04:57:04;;;;;;;19.67;2.10;;;;;;;;;;4961834;28;20551;-41
2024/01/21 04:59:31;;;;;;;13.80;1.92;;;;;;;;;;4963078;28;20053;-39
2024/01/21 05:01:58;;;;;;;13.73;1.55;;;;;;;;;;4980875;28;20105;-41
2024/01/21 05:04:25;;;;;;;17.65;2.10;;;;;;;;;;4982065;28;20033;-36
2024/01/21 05:06:52;;;;;;;11.30;2.03;;;;;;;;;;4980147;28;20030;-38
2024/01/21 05:09:19;;;;;;;15.13;2.33;;;;;;;;;;4977306;28;20109;-41
2024/01/21 05:11:50;;;;;;;17.00;2.17;;;;;;;;;;4981415;28;20023;-37
2024/01/21 05:14:17;;;;;;;15.55;1.90;;;;;;;;;;4980360;28;20038;-36
2024/01/21 05:16:47;;;;;;;13.20;1.80;;;;;;;;;;4982311;28;20030;-41
2024/01/21 05:19:16;;;;;;;10.27;1.50;;;;;;;;;;4982495;28;20477;-39
2024/01/21 05:21:44;;;;;;;13.52;1.90;;;;;;;;;;4982542;28;20027;-38
2024/01/21 05:24:11;;;;;;;9.50;1.90;;;;;;;;;;4981708;28;20031;-38
2024/01/21 05:26:45;;;;;;;14.70;1.70;;;;;;;;;;4980538;28;20465;-40
2024/01/21 05:29:16;;;;;;;15.57;2.08;;;;;;;;;;4981126;28;20053;-41
2024/01/21 05:31:43;;;;;;;13.35;2.08;;;;;;;;;;4980635;28;20035;-40
2024/01/21 05:34:11;;;;;;;18.92;1.98;;;;;;;;;;4981098;28;20038;-39
2024/01/21 05:36:39;;;;;;;14.18;1.98;;;;;;;;;;4982360;28;20140;-39
2024/01/21 05:39:06;;;;;;;16.13;2.08;;;;;;;;;;4982376;28;20026;-41
2024/01/21 05:41:39;;;;;;;14.32;2.45;;;;;;;;;;4982777;28;20023;-39
2024/01/21 05:44:06;;;;;;;10.50;1.45;;;;;;;;;;4985195;28;20026;-38
2024/01/21 05:46:34;;;;;;;15.35;2.25;;;;;;;;;;4983578;28;20022;-37
2024/01/21 05:49:01;;;;;;;29.63;2.45;;;;;;;;;;4982388;28;20472;-38
2024/01/21 05:51:28;;;;;;;20.48;2.30;;;;;;;;;;4981132;28;20163;-39
2024/01/21 05:53:54;;;;;;;19.33;2.00;;;;;;;;;;4979726;28;20115;-37
2024/01/21 05:56:22;;;;;;;12.00;1.67;;;;;;;;;;4980297;28;20031;-39
2024/01/21 05:58:49;;;;;;;11.93;1.52;;;;;;;;;;4981465;28;20034;-39
2024/01/21 06:01:16;;;;;;;13.85;2.00;;;;;;;;;;4975644;28;20440;-37
2024/01/21 06:03:42;;;;;;;11.98;1.77;;;;;;;;;;4982403;28;20106;-39
2024/01/21 06:06:10;;;;;;;7.78;1.63;;;;;;;;;;4983871;28;20030;-36
2024/01/21 06:08:36;;;;;;;12.05;1.63;;;;;;;;;;4984074;28;20026;-36
2024/01/21 06:11:03;;;;;;;14.35;2.10;;;;;;;;;;4984152;28;20058;-37
2024/01/21 06:13:30;;;;;;;8.75;1.98;;;;;;;;;;4984679;28;20038;-39
2024/01/21 06:16:00;;;;;;;16.73;2.05;;;;;;;;;;4968089;28;20034;-37
2024/01/21 06:18:27;;;;;;;10.80;1.65;;;;;;;;;;4984624;28;20380;-39
2024/01/21 06:20:54;;;;;;;11.07;1.83;;;;;;;;;;4984182;28;20030;-36
2024/01/21 06:23:21;;;;;;;10.02;1.50;;;;;;;;;;4985796;28;20052;-37
2024/01/21 06:25:49;;;;;;;10.23;1.83;;;;;;;;;;4984460;28;20366;-36
2024/01/21 06:28:16;;;;;;;12.82;1.35;;;;;;;;;;4983939;28;20029;-38
2024/01/21 06:30:43;;;;;;;28.85;3.30;;;;;;;;;;4968699;28;20125;-36
2024/01/21 06:33:10;;;;;;;31.17;2.72;;;;;;;;;;4984508;28;20027;-36
2024/01/21 06:35:37;;;;;;;21.00;2.88;;;;;;;;;;4985436;28;20027;-36
2024/01/21 06:38:04;;;;;;;19.00;2.00;;;;;;;;;;4983747;28;20030;-38
2024/01/21 06:40:31;;;;;;;16.17;1.73;;;;;;;;;;4984307;28;20365;-36
2024/01/21 06:42:58;;;;;;;25.20;1.90;;;;;;;;;;4985456;28;20034;-37
2024/01/21 06:45:28;;;;;;;10.00;1.50;;;;;;;;;;4983570;28;20034;-38
2024/01/21 06:47:55;;;;;;;14.27;1.98;;;;;;;;;;4983484;28;20516;-38
2024/01/21 06:50:22;;;;;;;5.20;1.50;;;;;;;;;;4985266;28;20018;-36
2024/01/21 06:52:49;;;;;;;7.20;1.52;;;;;;;;;;4983930;28;20026;-39
2024/01/21 06:55:16;;;;;;;5.90;1.20;;;;;;;;;;4983315;28;20590;-37
2024/01/21 06:57:43;;;;;;;9.38;1.30;;;;;;;;;;4983130;28;20046;-36
2024/01/21 07:00:11;;;;;;;9.90;1.42;;;;;;;;;;4983941;28;20390;-36
2024/01/21 07:02:38;;;;;;;7.63;1.50;;;;;;;;;;4984883;28;20070;-36
2024/01/21 07:05:05;;;;;;;9.85;1.10;;;;;;;;;;4983312;28;20652;-38
2024/01/21 07:07:32;;;;;;;5.35;1.25;;;;;;;;;;4983625;28;20053;-38
2024/01/21 07:09:59;;;;;;;3.65;1.00;;;;;;;;;;4984915;28;20022;-37
2024/01/21 07:12:26;;;;;;;7.68;1.20;;;;;;;;;;4983334;28;20489;-38
2024/01/21 07:14:53;;;;;;;10.27;1.40;;;;;;;;;;4983240;28;20034;-37
2024/01/21 07:17:20;;;;;;;11.52;1.50;;;;;;;;;;4984454;28;20022;-37
2024/01/21 07:19:52;;;;;;;9.40;1.60;;;;;;;;;;4983335;28;20031;-39
2024/01/21 07:22:22;;;;;;;5.50;1.42;;;;;;;;;;4982539;28;20034;-37
2024/01/21 07:24:49;;;;;;;9.90;1.17;;;;;;;;;;4983786;28;20022;-37
2024/01/21 07:27:16;;;;;;;8.43;1.08;;;;;;;;;;4984317;28;20029;-37
2024/01/21 07:29:43;;;;;;;8.82;1.38;;;;;;;;;;4982468;28;20126;-39
2024/01/21 07:32:09;;;;;;;7.10;1.60;;;;;;;;;;4983616;28;20030;-39
2024/01/21 07:34:36;;;;;;;10.00;1.65;;;;;;;;;;4984052;28;20042;-37
2024/01/21 07:37:03;;;;;;;7.80;1.05;;;;;;;;;;4982566;28;20034;-37
2024/01/21 07:39:30;;;;;;;9.82;1.33;;;;;;;;;;4983240;28;20389;-37
2024/01/21 07:41:57;;;;;;;7.45;1.10;;;;;;;;;;4984158;28;20033;-39
2024/01/21 07:44:24;;;;;;;5.60;1.50;;;;;;;;;;4984212;28;20022;-37
2024/01/21 07:46:51;;;;;;;5.55;1.45;;;;;;;;;;4983290;28;20037;-36
2024/01/21 07:49:18;;;;;;;9.80;1.33;;;;;;;;;;4982218;28;20061;-38
2024/01/21 07:51:46;;;;;;;4.60;1.58;;;;;;;;;;4982305;28;20049;-36
2024/01/21 07:54:13;;;;;;;12.35;1.42;;;;;;;;;;4982529;28;20488;-38
2024/01/21 07:56:40;;;;;;;6.25;1.10;;;;;;;;;;4984004;28;20018;-36
2024/01/21 07:59:07;;;;;;;13.45;1.65;;;;;;;;;;4982330;28;20065;-38
2024/01/21 08:01:33;;;;;;;7.93;1.50;;;;;;;;;;4982550;28;20030;-38
2024/01/21 08:04:00;;;;;;;11.70;1.73;;;;;;;;;;4983725;28;20026;-36
2024/01/21 08:06:27;;;;;;;7.43;1.58;;;;;;;;;;4982336;28;20081;-38
2024/01/21 08:08:57;;;;;;;11.27;1.70;;;;;;;;;;4982296;28;20034;-38
2024/01/21 08:11:24;;;;;;;11.80;1.63;;;;;;;;;;4981911;28;20023;-38
2024/01/21 08:13:51;;;;;;;5.32;1.45;;;;;;;;;;4982489;28;20034;-37
2024/01/21 08:16:18;;;;;;;9.77;1.70;;;;;;;;;;4983696;28;20694;-38
2024/01/21 08:18:45;;;;;;;11.68;1.70;;;;;;;;;;4981756;28;20507;-38
2024/01/21 08:21:12;;;;;;;14.82;1.70;;;;;;;;;;4984060;28;20038;-37
2024/01/21 08:23:40;;;;;;;10.98;1.60;;;;;;;;;;4981423;28;20097;-37
2024/01/21 08:26:07;;;;;;;11.77;1.70;;;;;;;;;;4982967;28;20037;-38
2024/01/21 08:28:34;;;;;;;10.80;1.70;;;;;;;;;;4982109;28;20027;-38
2024/01/21 08:31:04;;;;;;;13.93;1.80;;;;;;;;;;4981351;28;20018;-38
2024/01/21 08:33:31;;;;;;;13.43;1.83;;;;;;;;;;4982257;28;20045;-36
2024/01/21 08:35:58;;;;;;;16.75;1.95;;;;;;;;;;4983189;28;20109;-36
2024/01/21 08:38:26;;;;;;;9.82;1.90;;;;;;;;;;4981349;28;20062;-36
2024/01/21 08:40:53;;;;;;;14.57;1.90;;;;;;;;;;4982058;28;20357;-39
2024/01/21 08:43:20;;;;;;;17.77;2.22;;;;;;;;;;4983210;28;20033;-36
2024/01/21 08:45:47;;;;;;;13.27;2.25;;;;;;;;;;4981438;28;20026;-36
2024/01/21 08:48:14;;;;;;;19.40;2.35;;;;;;;;;;4981881;28;20026;-36
2024/01/21 08:50:41;;;;;;;12.77;2.22;;;;;;;;;;4983006;28;20033;-38
2024/01/21 08:53:09;;;;;;;16.02;1.95;;;;;;;;;;4981542;28;20046;-36
2024/01/21 08:55:36;;;;;;;9.88;1.90;;;;;;;;;;4981416;28;20041;-38
2024/01/21 08:58:03;;;;;;;45.53;4.28;;;;;;;;;;4965444;28;20038;-36
2024/01/21 09:00:29;;;;;;;55.55;4.22;;;;;;;;;;4981711;28;20055;-38
2024/01/21 09:02:56;;;;;;;29.13;3.35;;;;;;;;;;4981345;28;20026;-38
2024/01/21 09:05:23;;;;;;;25.05;3.95;;;;;;;;;;4982946;28;20041;-37
2024/01/21 09:07:50;;;;;;;27.95;3.15;;;;;;;;;;4981882;28;20035;-39
2024/01/21 09:10:17;;;;;;;25.80;3.05;;;;;;;;;;4981064;28;20416;-38
2024/01/21 09:12:44;;;;;;;25.23;2.53;;;;;;;;;;4980893;28;20043;-36
2024/01/21 09:15:11;;;;;;;16.67;2.50;;;;;;;;;;4981735;28;20041;-36
2024/01/21 09:17:39;;;;;;;35.08;3.90;;;;;;;;;;4982706;28;20030;-38
2024/01/21 09:20:06;;;;;;;32.33;4.47;;;;;;;;;;4982858;28;20616;-36
2024/01/21 09:22:33;;;;;;;36.70;3.72;;;;;;;;;;4981841;28;20034;-39
2024/01/21 09:24:59;;;;;;;32.95;3.88;;;;;;;;;;4980390;28;20071;-36
2024/01/21 09:27:26;;;;;;;37.42;5.03;;;;;;;;;;4982427;28;20035;-38
2024/01/21 09:29:53;;;;;;;40.28;4.90;;;;;;;;;;4981874;28;20034;-36
2024/01/21 09:32:20;;;;;;;56.55;6.55;;;;;;;;;;4980662;28;20034;-36
2024/01/21 09:34:48;;;;;;;72.60;7.25;;;;;;;;;;4981930;28;20053;-36
2024/01/21 09:37:15;;;;;;;80.00;9.38;;;;;;;;;;4982065;28;20034;-38
2024/01/21 09:39:42;;;;;;;87.30;9.20;;;;;;;;;;4981045;28;20030;-38
2024/01/21 09:42:09;;;;;;;80.03;9.90;;;;;;;;;;4986004;28;20062;-36
2024/01/21 09:44:36;;;;;;;94.43;10.13;;;;;;;;;;4985873;28;20073;-38
2024/01/21 09:47:03;;;;;;;85.90;10.00;;;;;;;;;;4984361;28;20547;-38
2024/01/21 09:49:34;;;;;;;88.07;11.23;;;;;;;;;;4985652;28;20492;-36
2024/01/21 09:52:05;;;;;;;94.15;11.82;;;;;;;;;;4986099;28;20030;-37
2024/01/21 09:54:32;;;;;;;111.00;12.60;;;;;;;;;;4967582;28;20470;-38
2024/01/21 09:57:00;;;;;;;98.28;11.98;;;;;;;;;;4984331;28;20030;-38
2024/01/21 09:59:28;;;;;;;78.90;10.60;;;;;;;;;;4984047;28;20093;-38
2024/01/21 10:01:55;;;;;;;103.47;11.88;;;;;;;;;;4987358;28;20084;-39
2024/01/21 10:04:23;;;;;;;65.82;7.80;;;;;;;;;;4970533;28;20026;-37
2024/01/21 10:06:52;;;;;;;78.20;9.40;;;;;;;;;;4988185;28;20049;-38
2024/01/21 10:09:21;;;;;;;59.63;7.22;;;;;;;;;;4988510;28;20467;-38
2024/01/21 10:11:50;;;;;;;37.38;4.63;;;;;;;;;;4977380;28;20047;-36
2024/01/21 10:14:17;;;;;;;31.52;3.20;;;;;;;;;;4985519;28;20031;-38
2024/01/21 10:16:44;;;;;;;14.40;2.60;;;;;;;;;;4983776;28;20023;-39
2024/01/21 10:19:15;;;;;;;10.75;1.75;;;;;;;;;;4985138;28;20092;-37
2024/01/21 10:21:42;;;;;;;13.45;2.15;;;;;;;;;;4985785;28;20041;-37
2024/01/21 10:24:09;;;;;;;13.23;1.63;;;;;;;;;;4966771;28;20027;-38
2024/01/21 10:26:42;;;;;;;10.18;1.63;;;;;;;;;;4984245;28;20069;-37
2024/01/21 10:29:09;;;;;;;12.05;1.58;;;;;;;;;;4984248;28;20515;-37
2024/01/21 10:31:36;;;;;;;7.80;1.83;;;;;;;;;;4984181;28;20038;-37
2024/01/21 10:34:03;;;;;;;15.05;1.90;;;;;;;;;;4985468;28;20034;-38
2024/01/21 10:36:35;;;;;;;12.40;2.00;;;;;;;;;;4984454;28;20026;-38
2024/01/21 10:39:06;;;;;;;11.48;1.88;;;;;;;;;;4983708;28;20042;-37
2024/01/21 10:41:33;;;;;;;14.27;1.80;;;;;;;;;;4984452;28;20033;-38
2024/01/21 10:44:02;;;;;;;13.63;2.00;;;;;;;;;;4985414;28;20037;-36
2024/01/21 10:46:32;;;;;;;11.25;1.73;;;;;;;;;;4983731;28;20035;-38
2024/01/21 10:48:59;;;;;;;12.82;1.85;;;;;;;;;;4983439;28;20039;-36
2024/01/21 10:51:27;;;;;;;18.67;2.65;;;;;;;;;;4982947;28;20035;-36
2024/01/21 10:53:54;;;;;;;17.85;2.63;;;;;;;;;;4983997;28;20397;-36
2024/01/21 10:56:23;;;;;;;18.08;2.08;;;;;;;;;;4985182;28;20552;-37
2024/01/21 10:58:50;;;;;;;14.00;2.10;;;;;;;;;;4983621;28;20047;-36
2024/01/21 11:01:18;;;;;;;14.57;1.70;;;;;;;;;;4983465;28;20057;-36
2024/01/21 11:03:45;;;;;;;29.52;2.47;;;;;;;;;;4985015;28;20054;-37
2024/01/21 11:06:12;;;;;;;21.25;2.25;;;;;;;;;;4983830;28;20609;-37
2024/01/21 11:08:43;;;;;;;18.23;1.88;;;;;;;;;;4983123;28;20030;-39
2024/01/21 11:11:11;;;;;;;23.13;1.80;;;;;;;;;;4983831;28;20401;-37
2024/01/21 11:13:41;;;;;;;19.20;1.95;;;;;;;;;;4982971;28;20038;-37
2024/01/21 11:16:11;;;;;;;22.05;2.28;;;;;;;;;;4983157;28;20122;-39
2024/01/21 11:18:38;;;;;;;17.63;1.98;;;;;;;;;;4983081;28;20053;-39
2024/01/21 11:21:05;;;;;;;17.63;2.10;;;;;;;;;;4984833;28;20019;-37
2024/01/21 11:23:33;;;;;;;21.00;2.13;;;;;;;;;;4983603;28;20022;-39
2024/01/21 11:26:00;;;;;;;26.95;2.78;;;;;;;;;;4982832;28;20038;-38
2024/01/21 11:28:28;;;;;;;17.40;2.10;;;;;;;;;;4990901;28;20042;-39
2024/01/21 11:31:04;;;;;;;22.17;1.92;;;;;;;;;;4993683;28;20030;-37
2024/01/21 11:33:31;;;;;;;13.13;1.58;;;;;;;;;;4993778;28;20058;-37
2024/01/21 11:36:01;;;;;;;18.63;1.70;;;;;;;;;;4993859;28;20080;-36
2024/01/21 11:38:29;;;;;;;16.30;2.03;;;;;;;;;;4976289;28;20081;-37
2024/01/21 11:41:03;;;;;;;19.95;1.88;;;;;;;;;;4990475;28;20050;-36
2024/01/21 11:43:34;;;;;;;16.00;1.83;;;;;;;;;;4983015;28;20039;-36
2024/01/21 11:46:03;;;;;;;27.83;2.40;;;;;;;;;;4993719;28;20453;-36
2024/01/21 11:48:30;;;;;;;24.70;2.50;;;;;;;;;;4985473;28;20081;-38
2024/01/21 11:50:58;;;;;;;24.08;2.58;;;;;;;;;;4983098;28;20034;-38
2024/01/21 11:53:25;;;;;;;21.70;1.88;;;;;;;;;;4980740;28;20105;-38
2024/01/21 11:55:52;;;;;;;18.77;2.15;;;;;;;;;;4986844;28;20404;-37
2024/01/21 11:58:19;;;;;;;24.52;2.20;;;;;;;;;;4987655;28;20117;-36
2024/01/21 12:00:47;;;;;;;19.27;2.42;;;;;;;;;;4982007;28;20145;-39
2024/01/21 12:03:14;;;;;;;25.30;2.40;;;;;;;;;;4982509;28;20026;-36
2024/01/21 12:05:43;;;;;;;21.02;2.85;;;;;;;;;;4993043;28;20117;-37
2024/01/21 12:08:12;;;;;;;26.92;2.30;;;;;;;;;;4993082;28;20113;-36
2024/01/21 12:10:39;;;;;;;22.45;2.50;;;;;;;;;;4993096;28;20039;-36
2024/01/21 12:13:07;;;;;;;20.13;2.35;;;;;;;;;;4992834;28;20042;-36
2024/01/21 12:15:35;;;;;;;14.73;1.95;;;;;;;;;;4992753;28;20113;-37
2024/01/21 12:18:03;;;;;;;17.48;2.38;;;;;;;;;;4993203;28;20034;-36
2024/01/21 12:20:30;;;;;;;13.32;1.80;;;;;;;;;;4992988;28;20392;-36
2024/01/21 12:22:57;;;;;;;26.85;2.70;;;;;;;;;;4992458;28;20477;-39
2024/01/21 12:25:25;;;;;;;24.45;2.53;;;;;;;;;;4992545;28;20042;-39
2024/01/21 12:27:58;;;;;;;48.35;4.05;;;;;;;;;;4992697;28;20172;-39
2024/01/21 12:30:26;;;;;;;59.70;4.25;;;;;;;;;;4992789;28;20109;-39
2024/01/21 12:32:53;;;;;;;71.45;5.00;;;;;;;;;;4992997;28;20062;-39
2024/01/21 12:35:21;;;;;;;83.82;6.00;;;;;;;;;;4992372;28;20093;-39
2024/01/21 12:37:48;;;;;;;75.45;6.03;;;;;;;;;;4975315;28;20444;-39
2024/01/21 12:40:16;;;;;;;76.93;6.35;;;;;;;;;;4992375;28;20544;-38
2024/01/21 12:42:43;;;;;;;63.13;4.93;;;;;;;;;;4992577;28;20027;-39
2024/01/21 12:45:11;;;;;;;51.92;3.75;;;;;;;;;;4992328;28;20030;-39
2024/01/21 12:47:38;;;;;;;47.15;4.13;;;;;;;;;;4992527;28;20085;-39
2024/01/21 12:50:07;;;;;;;74.07;5.22;;;;;;;;;;4986597;28;20037;-39
2024/01/21 12:52:35;;;;;;;106.18;7.35;;;;;;;;;;4978003;28;20105;-39
2024/01/21 12:55:03;;;;;;;116.88;6.88;;;;;;;;;;4984044;28;20038;-36
2024/01/21 12:57:30;;;;;;;109.97;6.40;;;;;;;;;;4974934;28;20103;-36
2024/01/21 12:59:58;;;;;;;108.15;6.93;;;;;;;;;;4991944;28;20042;-39
2024/01/21 13:02:25;;;;;;;76.18;5.43;;;;;;;;;;4965752;28;20080;-38
2024/01/21 13:04:53;;;;;;;94.15;6.18;;;;;;;;;;4986535;28;20026;-39
2024/01/21 13:07:20;;;;;;;52.53;5.63;;;;;;;;;;4974717;28;20030;-39
2024/01/21 13:09:47;;;;;;;82.32;5.93;;;;;;;;;;4992117;28;20034;-39
2024/01/21 13:12:14;;;;;;;73.28;6.10;;;;;;;;;;4988013;28;20045;-39
2024/01/21 13:14:42;;;;;;;64.20;5.40;;;;;;;;;;4972305;28;20065;-39
2024/01/21 13:17:08;;;;;;;83.43;6.35;;;;;;;;;;4972690;28;20504;-38
2024/01/21 13:19:35;;;;;;;62.05;4.75;;;;;;;;;;4962807;28;20097;-38
2024/01/21 13:22:06;;;;;;;60.20;4.63;;;;;;;;;;4965268;28;20034;-39
2024/01/21 13:24:34;;;;;;;43.78;4.53;;;;;;;;;;4981411;28;20035;-36
2024/01/21 13:27:16;;;;;;;61.38;4.25;;;;;;;;;;4980977;28;20022;-38
2024/01/21 13:32:28;;;;;;;42.55;4.40;;;;;;;;;;4991023;28;20041;-36
2024/01/21 13:34:55;;;;;;;56.50;4.53;;;;;;;;;;4991681;28;20046;-38
2024/01/21 13:37:25;;;;;;;56.85;4.05;;;;;;;;;;4991851;28;20026;-39
2024/01/21 13:39:52;;;;;;;37.33;3.88;;;;;;;;;;4991623;28;20035;-39
2024/01/21 13:42:19;;;;;;;48.75;3.47;;;;;;;;;;4991496;28;20105;-38
2024/01/21 13:44:47;;;;;;;48.05;4.03;;;;;;;;;;4991758;28;20046;-39
2024/01/21 13:47:14;;;;;;;44.38;4.15;;;;;;;;;;4968778;28;20120;-36
2024/01/21 13:49:42;;;;;;;43.13;4.05;;;;;;;;;;4991948;28;20030;-36
2024/01/21 13:52:14;;;;;;;48.85;5.15;;;;;;;;;;4991811;28;20050;-36
2024/01/21 13:54:41;;;;;;;77.47;7.32;;;;;;;;;;4989458;28;20036;-39
2024/01/21 13:57:08;;;;;;;81.60;7.13;;;;;;;;;;4972166;28;20039;-39
2024/01/21 13:59:37;;;;;;;57.13;5.10;;;;;;;;;;4972232;28;20027;-39
2024/01/21 14:02:09;;;;;;;57.90;5.07;;;;;;;;;;4972258;28;20034;-39
2024/01/21 14:04:36;;;;;;;63.58;5.18;;;;;;;;;;4972147;28;20038;-39
2024/01/21 14:07:04;;;;;;;76.68;7.10;;;;;;;;;;4972293;28;20531;-39
2024/01/21 14:09:31;;;;;;;98.05;7.32;;;;;;;;;;4972273;28;20034;-39
2024/01/21 14:11:58;;;;;;;80.22;7.93;;;;;;;;;;4972224;28;20026;-36
2024/01/21 14:14:25;;;;;;;138.18;9.15;;;;;;;;;;4972063;28;20109;-35
2024/01/21 14:16:52;;;;;;;80.93;7.28;;;;;;;;;;4977058;28;20034;-35
2024/01/21 14:19:19;;;;;;;88.53;7.60;;;;;;;;;;4982191;28;20059;-35
2024/01/21 14:21:46;;;;;;;96.30;7.00;;;;;;;;;;4981295;28;20497;-37
2024/01/21 14:24:13;;;;;;;80.57;5.85;;;;;;;;;;4980522;28;20026;-34
2024/01/21 14:26:42;;;;;;;71.97;6.78;;;;;;;;;;4982235;28;20046;-37
2024/01/21 14:29:21;;;;;;;69.70;6.03;;;;;;;;;;4984355;28;20027;-35
2024/01/21 14:31:48;;;;;;;55.35;5.57;;;;;;;;;;4984730;28;20502;-37
2024/01/21 14:34:16;;;;;;;53.03;4.82;;;;;;;;;;4983305;28;20043;-35